sensor_id;sensor_type;location;lat;lon;timestamp;pressure;altitude;pressure_sealevel;temperature;humidity
15674;BME280;7937;48.090;16.212;2023-01-29T00:02:43;98621.41;;;0.31;68.48
15674;BME280;7937;48.090;16.212;2023-01-29T00:05:45;98624.56;;;0.17;68.79
15674;BME280;7937;48.090;16.212;2023-01-29T00:08:48;98625.09;;;0.20;68.39
15674;BME280;7937;48.090;16.212;2023-01-29T00:11:53;98623.31;;;0.21;68.34
15674;BME280;7937;48.090;16.212;2023-01-29T00:14:55;98620.69;;;0.21;68.96
15674;BME280;7937;48.090;16.212;2023-01-29T00:17:57;98632.34;;;0.27;68.37
15674;BME280;7937;48.090;16.212;2023-01-29T00:21:01;98629.28;;;0.13;68.40
15674;BME280;7937;48.090;16.212;2023-01-29T00:24:04;98621.06;;;0.08;68.10
15674;BME280;7937;48.090;16.212;2023-01-29T00:27:06;98621.75;;;0.10;68.24
15674;BME280;7937;48.090;16.212;2023-01-29T00:30:09;98622.50;;;0.03;68.57
15674;BME280;7937;48.090;16.212;2023-01-29T00:33:14;98621.50;;;0.04;68.35
15674;BME280;7937;48.090;16.212;2023-01-29T00:36:17;98629.69;;;0.01;68.87
15674;BME280;7937;48.090;16.212;2023-01-29T00:39:20;98627.72;;;0.03;68.42
15674;BME280;7937;48.090;16.212;2023-01-29T00:42:39;98620.50;;;-0.04;68.15
15674;BME280;7937;48.090;16.212;2023-01-29T00:46:00;98618.84;;;-0.05;68.53
15674;BME280;7937;48.090;16.212;2023-01-29T00:49:04;98621.09;;;-0.10;68.38
15674;BME280;7937;48.090;16.212;2023-01-29T00:52:07;98618.59;;;-0.11;68.13
15674;BME280;7937;48.090;16.212;2023-01-29T00:55:27;98622.03;;;-0.11;67.72
15674;BME280;7937;48.090;16.212;2023-01-29T00:58:29;98611.06;;;-0.14;67.58
15674;BME280;7937;48.090;16.212;2023-01-29T01:01:35;98624.91;;;-0.04;67.29
15674;BME280;7937;48.090;16.212;2023-01-29T01:04:56;98627.06;;;0.01;67.40
15674;BME280;7937;48.090;16.212;2023-01-29T01:07:58;98630.50;;;0.01;67.45
15674;BME280;7937;48.090;16.212;2023-01-29T01:11:03;98640.00;;;0.02;67.42
15674;BME280;7937;48.090;16.212;2023-01-29T01:14:06;98634.25;;;-0.02;66.92
15674;BME280;7937;48.090;16.212;2023-01-29T01:17:09;98645.63;;;-0.11;67.14
15674;BME280;7937;48.090;16.212;2023-01-29T01:20:11;98645.78;;;-0.12;67.04
15674;BME280;7937;48.090;16.212;2023-01-29T01:23:14;98636.94;;;-0.11;66.82
15674;BME280;7937;48.090;16.212;2023-01-29T01:26:19;98644.34;;;-0.07;66.53
15674;BME280;7937;48.090;16.212;2023-01-29T01:29:21;98634.84;;;-0.08;66.74
15674;BME280;7937;48.090;16.212;2023-01-29T01:32:24;98636.50;;;-0.24;66.95
15674;BME280;7937;48.090;16.212;2023-01-29T01:35:27;98629.09;;;-0.29;66.83
15674;BME280;7937;48.090;16.212;2023-01-29T01:38:29;98631.56;;;-0.28;67.22
15674;BME280;7937;48.090;16.212;2023-01-29T01:41:31;98625.25;;;-0.35;67.23
15674;BME280;7937;48.090;16.212;2023-01-29T01:44:59;98630.81;;;-0.38;67.04
15674;BME280;7937;48.090;16.212;2023-01-29T01:48:33;98617.19;;;-0.41;67.04
15674;BME280;7937;48.090;16.212;2023-01-29T01:51:39;98632.22;;;-0.26;67.04
15674;BME280;7937;48.090;16.212;2023-01-29T01:54:44;98628.78;;;-0.26;67.35
15674;BME280;7937;48.090;16.212;2023-01-29T01:57:51;98631.78;;;-0.39;68.00
15674;BME280;7937;48.090;16.212;2023-01-29T02:00:54;98634.09;;;-0.36;68.09
15674;BME280;7937;48.090;16.212;2023-01-29T02:04:10;98629.31;;;-0.40;67.75
15674;BME280;7937;48.090;16.212;2023-01-29T02:07:35;98635.97;;;-0.46;67.81
15674;BME280;7937;48.090;16.212;2023-01-29T02:11:00;98642.00;;;-0.45;67.73
15674;BME280;7937;48.090;16.212;2023-01-29T02:14:03;98634.03;;;-0.44;67.66
15674;BME280;7937;48.090;16.212;2023-01-29T02:17:10;98640.91;;;-0.43;67.62
15674;BME280;7937;48.090;16.212;2023-01-29T02:20:23;98641.78;;;-0.52;66.95
15674;BME280;7937;48.090;16.212;2023-01-29T02:27:13;98647.53;;;-0.66;67.03
15674;BME280;7937;48.090;16.212;2023-01-29T02:30:27;98652.84;;;-0.86;67.27
15674;BME280;7937;48.090;16.212;2023-01-29T02:33:54;98652.16;;;-0.78;67.74
15674;BME280;7937;48.090;16.212;2023-01-29T02:37:08;98644.03;;;-0.85;67.48
15674;BME280;7937;48.090;16.212;2023-01-29T02:40:34;98649.25;;;-0.85;67.29
15674;BME280;7937;48.090;16.212;2023-01-29T02:47:18;98649.53;;;-0.78;67.44
15674;BME280;7937;48.090;16.212;2023-01-29T02:50:36;98651.84;;;-0.75;67.60
15674;BME280;7937;48.090;16.212;2023-01-29T02:53:51;98658.69;;;-0.74;67.81
15674;BME280;7937;48.090;16.212;2023-01-29T02:57:25;98654.38;;;-0.83;67.81
15674;BME280;7937;48.090;16.212;2023-01-29T03:00:35;98661.44;;;-0.66;67.57
15674;BME280;7937;48.090;16.212;2023-01-29T03:03:42;98668.28;;;-0.83;67.45
15674;BME280;7937;48.090;16.212;2023-01-29T03:06:57;98640.25;;;-1.00;67.71
15674;BME280;7937;48.090;16.212;2023-01-29T03:10:04;98663.75;;;-0.90;68.02
15674;BME280;7937;48.090;16.212;2023-01-29T03:13:14;98641.66;;;-1.06;67.96
15674;BME280;7937;48.090;16.212;2023-01-29T03:19:45;98663.47;;;-0.87;68.14
15674;BME280;7937;48.090;16.212;2023-01-29T03:23:01;98656.34;;;-0.95;68.59
15674;BME280;7937;48.090;16.212;2023-01-29T03:26:08;98661.06;;;-0.98;68.48
15674;BME280;7937;48.090;16.212;2023-01-29T03:29:33;98663.75;;;-0.90;68.53
15674;BME280;7937;48.090;16.212;2023-01-29T03:33:01;98663.50;;;-0.97;68.17
15674;BME280;7937;48.090;16.212;2023-01-29T03:36:13;98671.94;;;-1.03;68.38
15674;BME280;7937;48.090;16.212;2023-01-29T03:39:18;98677.13;;;-0.93;68.69
15674;BME280;7937;48.090;16.212;2023-01-29T03:42:37;98666.09;;;-0.87;68.28
15674;BME280;7937;48.090;16.212;2023-01-29T03:49:20;98655.25;;;-0.92;67.95
15674;BME280;7937;48.090;16.212;2023-01-29T03:52:50;98643.81;;;-0.91;67.93
15674;BME280;7937;48.090;16.212;2023-01-29T04:03:12;98638.78;;;-1.02;67.23
15674;BME280;7937;48.090;16.212;2023-01-29T04:06:26;98629.94;;;-1.01;67.13
15674;BME280;7937;48.090;16.212;2023-01-29T04:09:41;98633.63;;;-0.94;67.65
15674;BME280;7937;48.090;16.212;2023-01-29T04:12:58;98625.59;;;-0.83;67.26
15674;BME280;7937;48.090;16.212;2023-01-29T04:16:03;98626.25;;;-0.81;67.02
15674;BME280;7937;48.090;16.212;2023-01-29T04:19:37;98597.16;;;-0.96;67.33
15674;BME280;7937;48.090;16.212;2023-01-29T04:22:41;98624.84;;;-0.75;67.63
15674;BME280;7937;48.090;16.212;2023-01-29T04:25:52;98618.09;;;-0.68;67.45
15674;BME280;7937;48.090;16.212;2023-01-29T04:32:17;98607.19;;;-0.91;66.85
15674;BME280;7937;48.090;16.212;2023-01-29T04:36:01;98607.19;;;-0.91;66.79
15674;BME280;7937;48.090;16.212;2023-01-29T04:39:36;98617.38;;;-0.88;66.63
15674;BME280;7937;48.090;16.212;2023-01-29T04:43:25;98616.50;;;-0.89;66.69
15674;BME280;7937;48.090;16.212;2023-01-29T04:46:18;98616.25;;;-0.86;66.27
15674;BME280;7937;48.090;16.212;2023-01-29T04:56:17;98643.41;;;-0.96;66.58
15674;BME280;7937;48.090;16.212;2023-01-29T04:59:54;98648.22;;;-0.92;66.27
15674;BME280;7937;48.090;16.212;2023-01-29T05:03:02;98652.47;;;-0.91;66.41
15674;BME280;7937;48.090;16.212;2023-01-29T05:06:06;98647.56;;;-1.04;65.92
15674;BME280;7937;48.090;16.212;2023-01-29T05:09:12;98648.97;;;-1.09;66.11
15674;BME280;7937;48.090;16.212;2023-01-29T05:12:16;98653.72;;;-1.22;66.35
15674;BME280;7937;48.090;16.212;2023-01-29T05:15:24;98649.34;;;-1.32;65.30
15674;BME280;7937;48.090;16.212;2023-01-29T05:18:28;98648.25;;;-1.39;65.86
15674;BME280;7937;48.090;16.212;2023-01-29T05:21:31;98650.34;;;-1.52;66.09
15674;BME280;7937;48.090;16.212;2023-01-29T05:24:34;98651.63;;;-1.66;66.05
15674;BME280;7937;48.090;16.212;2023-01-29T05:27:36;98646.66;;;-1.69;66.03
15674;BME280;7937;48.090;16.212;2023-01-29T05:30:58;98642.69;;;-1.83;65.98
15674;BME280;7937;48.090;16.212;2023-01-29T05:34:00;98634.59;;;-1.79;65.93
15674;BME280;7937;48.090;16.212;2023-01-29T05:37:03;98636.75;;;-1.65;66.06
15674;BME280;7937;48.090;16.212;2023-01-29T05:40:07;98622.47;;;-1.61;65.63
15674;BME280;7937;48.090;16.212;2023-01-29T05:43:19;98634.72;;;-1.71;65.65
15674;BME280;7937;48.090;16.212;2023-01-29T05:46:21;98637.63;;;-1.84;65.26
15674;BME280;7937;48.090;16.212;2023-01-29T05:49:24;98633.50;;;-1.77;65.27
15674;BME280;7937;48.090;16.212;2023-01-29T05:52:26;98639.13;;;-1.82;65.12
15674;BME280;7937;48.090;16.212;2023-01-29T05:55:28;98633.63;;;-1.78;64.92
15674;BME280;7937;48.090;16.212;2023-01-29T05:58:31;98639.25;;;-1.73;65.66
15674;BME280;7937;48.090;16.212;2023-01-29T06:01:37;98641.72;;;-1.62;64.60
15674;BME280;7937;48.090;16.212;2023-01-29T06:04:39;98639.50;;;-1.57;64.38
15674;BME280;7937;48.090;16.212;2023-01-29T06:07:41;98630.47;;;-1.72;64.42
15674;BME280;7937;48.090;16.212;2023-01-29T06:10:46;98633.72;;;-1.61;64.55
15674;BME280;7937;48.090;16.212;2023-01-29T06:13:48;98627.13;;;-1.65;64.17
15674;BME280;7937;48.090;16.212;2023-01-29T06:16:50;98633.47;;;-1.58;64.32
15674;BME280;7937;48.090;16.212;2023-01-29T06:19:52;98613.66;;;-1.60;63.61
15674;BME280;7937;48.090;16.212;2023-01-29T06:22:55;98614.31;;;-1.58;63.87
15674;BME280;7937;48.090;16.212;2023-01-29T06:26:04;98606.25;;;-1.74;64.17
15674;BME280;7937;48.090;16.212;2023-01-29T06:29:09;98619.03;;;-1.62;64.48
15674;BME280;7937;48.090;16.212;2023-01-29T06:32:11;98619.44;;;-1.57;63.90
15674;BME280;7937;48.090;16.212;2023-01-29T06:35:14;98627.69;;;-1.61;63.10
15674;BME280;7937;48.090;16.212;2023-01-29T06:38:17;98585.13;;;-1.81;63.37
15674;BME280;7937;48.090;16.212;2023-01-29T06:41:20;98621.50;;;-1.60;63.57
15674;BME280;7937;48.090;16.212;2023-01-29T06:44:26;98623.13;;;-1.59;63.71
15674;BME280;7937;48.090;16.212;2023-01-29T06:47:28;98631.13;;;-1.70;62.90
15674;BME280;7937;48.090;16.212;2023-01-29T06:50:30;98629.22;;;-1.78;62.84
15674;BME280;7937;48.090;16.212;2023-01-29T06:53:34;98636.25;;;-1.88;62.68
15674;BME280;7937;48.090;16.212;2023-01-29T06:56:39;98634.44;;;-1.88;62.19
15674;BME280;7937;48.090;16.212;2023-01-29T06:59:41;98626.63;;;-1.88;63.54
15674;BME280;7937;48.090;16.212;2023-01-29T07:02:43;98633.63;;;-1.78;63.19
15674;BME280;7937;48.090;16.212;2023-01-29T07:05:50;98634.44;;;-1.88;62.85
15674;BME280;7937;48.090;16.212;2023-01-29T07:08:54;98618.13;;;-1.99;62.38
15674;BME280;7937;48.090;16.212;2023-01-29T07:11:56;98634.19;;;-1.85;62.29
15674;BME280;7937;48.090;16.212;2023-01-29T07:14:58;98623.59;;;-1.83;61.86
15674;BME280;7937;48.090;16.212;2023-01-29T07:18:02;98618.38;;;-1.93;61.62
15674;BME280;7937;48.090;16.212;2023-01-29T07:21:06;98610.28;;;-1.90;62.43
15674;BME280;7937;48.090;16.212;2023-01-29T07:24:08;98620.03;;;-1.72;62.63
15674;BME280;7937;48.090;16.212;2023-01-29T07:27:10;98631.69;;;-1.67;61.95
15674;BME280;7937;48.090;16.212;2023-01-29T07:30:13;98628.94;;;-1.65;61.50
15674;BME280;7937;48.090;16.212;2023-01-29T07:33:15;98635.25;;;-1.68;61.38
15674;BME280;7937;48.090;16.212;2023-01-29T07:36:17;98637.72;;;-1.57;61.73
15674;BME280;7937;48.090;16.212;2023-01-29T07:39:20;98634.97;;;-1.65;61.60
15674;BME280;7937;48.090;16.212;2023-01-29T07:42:22;98636.75;;;-1.65;61.32
15674;BME280;7937;48.090;16.212;2023-01-29T07:45:24;98628.09;;;-1.56;61.66
15674;BME280;7937;48.090;16.212;2023-01-29T07:48:26;98636.47;;;-1.52;61.49
15674;BME280;7937;48.090;16.212;2023-01-29T07:51:28;98632.94;;;-1.34;61.43
15674;BME280;7937;48.090;16.212;2023-01-29T07:54:31;98631.25;;;-1.15;61.33
15674;BME280;7937;48.090;16.212;2023-01-29T07:57:33;98627.78;;;-1.06;61.07
15674;BME280;7937;48.090;16.212;2023-01-29T08:00:36;98639.72;;;-1.04;60.51
15674;BME280;7937;48.090;16.212;2023-01-29T08:03:38;98641.50;;;-1.04;60.73
15674;BME280;7937;48.090;16.212;2023-01-29T08:06:41;98633.59;;;-1.12;60.31
15674;BME280;7937;48.090;16.212;2023-01-29T08:09:43;98638.88;;;-1.04;60.69
15674;BME280;7937;48.090;16.212;2023-01-29T08:12:46;98640.94;;;-0.98;60.50
15674;BME280;7937;48.090;16.212;2023-01-29T08:15:51;98625.19;;;-1.16;60.66
15674;BME280;7937;48.090;16.212;2023-01-29T08:18:53;98642.47;;;-1.05;60.87
15674;BME280;7937;48.090;16.212;2023-01-29T08:21:55;98639.44;;;-1.00;61.03
15674;BME280;7937;48.090;16.212;2023-01-29T08:25:01;98647.03;;;-1.07;60.51
15674;BME280;7937;48.090;16.212;2023-01-29T08:28:10;98654.47;;;-1.02;60.79
15674;BME280;7937;48.090;16.212;2023-01-29T08:31:17;98642.88;;;-1.00;60.73
15674;BME280;7937;48.090;16.212;2023-01-29T08:34:21;98562.00;;;-1.39;60.72
15674;BME280;7937;48.090;16.212;2023-01-29T08:37:23;98645.44;;;-0.90;59.63
15674;BME280;7937;48.090;16.212;2023-01-29T08:40:28;98633.44;;;-1.11;60.03
15674;BME280;7937;48.090;16.212;2023-01-29T08:43:34;98640.25;;;-1.00;60.59
15674;BME280;7937;48.090;16.212;2023-01-29T08:46:38;98661.56;;;-0.95;60.25
15674;BME280;7937;48.090;16.212;2023-01-29T08:49:42;98681.00;;;-0.97;59.86
15674;BME280;7937;48.090;16.212;2023-01-29T08:52:45;98673.03;;;-1.06;60.14
15674;BME280;7937;48.090;16.212;2023-01-29T08:55:47;98676.00;;;-0.91;60.38
15674;BME280;7937;48.090;16.212;2023-01-29T08:58:49;98683.09;;;-0.73;59.70
15674;BME280;7937;48.090;16.212;2023-01-29T09:01:52;98677.94;;;-0.65;60.14
15674;BME280;7937;48.090;16.212;2023-01-29T09:04:54;98686.97;;;-0.77;59.36
15674;BME280;7937;48.090;16.212;2023-01-29T09:08:00;98688.34;;;-0.73;59.42
15674;BME280;7937;48.090;16.212;2023-01-29T09:11:02;98690.22;;;-0.66;59.06
15674;BME280;7937;48.090;16.212;2023-01-29T09:14:05;98685.50;;;-0.62;59.21
15674;BME280;7937;48.090;16.212;2023-01-29T09:17:08;98684.88;;;-0.46;59.16
15674;BME280;7937;48.090;16.212;2023-01-29T09:20:11;98694.19;;;-0.34;58.99
15674;BME280;7937;48.090;16.212;2023-01-29T09:23:13;98686.31;;;-0.16;57.97
15674;BME280;7937;48.090;16.212;2023-01-29T09:26:17;98675.78;;;-0.07;58.01
15674;BME280;7937;48.090;16.212;2023-01-29T09:29:19;98681.03;;;0.11;57.38
15674;BME280;7937;48.090;16.212;2023-01-29T09:32:21;98676.53;;;0.04;56.98
15674;BME280;7937;48.090;16.212;2023-01-29T09:35:44;98673.25;;;0.02;56.83
15674;BME280;7937;48.090;16.212;2023-01-29T09:38:48;98662.97;;;-0.28;57.48
15674;BME280;7937;48.090;16.212;2023-01-29T09:45:29;98682.41;;;-0.48;57.94
15674;BME280;7937;48.090;16.212;2023-01-29T09:48:34;98687.34;;;-0.45;58.88
15674;BME280;7937;48.090;16.212;2023-01-29T09:51:43;98681.59;;;-0.48;57.87
15674;BME280;7937;48.090;16.212;2023-01-29T09:58:38;98695.13;;;-0.35;58.19
15674;BME280;7937;48.090;16.212;2023-01-29T10:02:12;98704.88;;;-0.28;58.24
15674;BME280;7937;48.090;16.212;2023-01-29T10:12:07;98676.91;;;-0.09;57.86
15674;BME280;7937;48.090;16.212;2023-01-29T10:22:23;98688.88;;;0.11;56.64
15674;BME280;7937;48.090;16.212;2023-01-29T10:25:34;98685.69;;;0.43;56.99
15674;BME280;7937;48.090;16.212;2023-01-29T10:28:45;98681.19;;;0.54;56.58
15674;BME280;7937;48.090;16.212;2023-01-29T10:31:55;98684.03;;;0.60;56.39
15674;BME280;7937;48.090;16.212;2023-01-29T10:35:23;98667.16;;;0.63;56.76
15674;BME280;7937;48.090;16.212;2023-01-29T10:38:46;98655.69;;;0.64;56.68
15674;BME280;7937;48.090;16.212;2023-01-29T10:42:16;98643.91;;;0.68;56.60
15674;BME280;7937;48.090;16.212;2023-01-29T10:45:32;98651.47;;;0.71;56.09
15674;BME280;7937;48.090;16.212;2023-01-29T10:48:39;98648.22;;;0.77;56.20
15674;BME280;7937;48.090;16.212;2023-01-29T10:58:32;98648.41;;;0.49;57.22
15674;BME280;7937;48.090;16.212;2023-01-29T11:01:34;98602.91;;;0.33;56.81
15674;BME280;7937;48.090;16.212;2023-01-29T11:04:40;98634.16;;;0.52;56.81
15674;BME280;7937;48.090;16.212;2023-01-29T11:07:43;98627.31;;;0.59;57.84
15674;BME280;7937;48.090;16.212;2023-01-29T11:10:53;98633.28;;;0.69;57.49
15674;BME280;7937;48.090;16.212;2023-01-29T11:14:01;98629.16;;;0.67;57.40
15674;BME280;7937;48.090;16.212;2023-01-29T11:17:17;98623.44;;;0.71;57.90
15674;BME280;7937;48.090;16.212;2023-01-29T11:20:29;98616.41;;;0.72;57.60
15674;BME280;7937;48.090;16.212;2023-01-29T11:23:32;98615.53;;;0.89;57.91
15674;BME280;7937;48.090;16.212;2023-01-29T11:26:38;98588.47;;;0.97;57.76
15674;BME280;7937;48.090;16.212;2023-01-29T11:29:44;98595.13;;;1.25;56.96
15674;BME280;7937;48.090;16.212;2023-01-29T11:33:38;98589.25;;;1.32;56.44
15674;BME280;7937;48.090;16.212;2023-01-29T11:36:38;98578.78;;;1.56;56.71
15674;BME280;7937;48.090;16.212;2023-01-29T11:39:45;98573.84;;;1.37;55.89
15674;BME280;7937;48.090;16.212;2023-01-29T11:42:48;98564.16;;;1.29;55.74
15674;BME280;7937;48.090;16.212;2023-01-29T11:45:54;98553.78;;;1.27;56.21
15674;BME280;7937;48.090;16.212;2023-01-29T11:48:57;98543.31;;;1.19;56.39
15674;BME280;7937;48.090;16.212;2023-01-29T11:52:22;98542.56;;;0.93;57.13
15674;BME280;7937;48.090;16.212;2023-01-29T11:55:27;98539.59;;;0.88;57.31
15674;BME280;7937;48.090;16.212;2023-01-29T11:58:53;98514.66;;;0.75;58.15
15674;BME280;7937;48.090;16.212;2023-01-29T12:02:10;98517.13;;;0.85;57.69
15674;BME280;7937;48.090;16.212;2023-01-29T12:05:20;98522.25;;;1.03;57.73
15674;BME280;7937;48.090;16.212;2023-01-29T12:08:23;98473.03;;;0.81;57.77
15674;BME280;7937;48.090;16.212;2023-01-29T12:11:31;98495.88;;;1.13;57.13
15674;BME280;7937;48.090;16.212;2023-01-29T12:14:34;98479.13;;;0.89;57.45
15674;BME280;7937;48.090;16.212;2023-01-29T12:17:44;98490.94;;;1.01;57.63
15674;BME280;7937;48.090;16.212;2023-01-29T12:21:01;98484.38;;;1.06;57.90
15674;BME280;7937;48.090;16.212;2023-01-29T12:27:43;98469.41;;;0.82;58.92
15674;BME280;7937;48.090;16.212;2023-01-29T12:31:14;98470.25;;;0.98;59.10
15674;BME280;7937;48.090;16.212;2023-01-29T12:34:44;98456.72;;;1.44;58.28
15674;BME280;7937;48.090;16.212;2023-01-29T12:38:02;98450.78;;;1.42;58.41
15674;BME280;7937;48.090;16.212;2023-01-29T12:44:57;98443.72;;;1.67;58.47
15674;BME280;7937;48.090;16.212;2023-01-29T12:48:05;98442.72;;;1.84;58.05
15674;BME280;7937;48.090;16.212;2023-01-29T12:51:15;98438.41;;;1.91;57.97
15674;BME280;7937;48.090;16.212;2023-01-29T12:54:38;98440.75;;;1.78;58.45
15674;BME280;7937;48.090;16.212;2023-01-29T12:57:50;98445.38;;;1.43;58.75
15674;BME280;7937;48.090;16.212;2023-01-29T13:00:59;98430.44;;;1.52;59.74
15674;BME280;7937;48.090;16.212;2023-01-29T13:04:29;98441.28;;;1.41;59.79
15674;BME280;7937;48.090;16.212;2023-01-29T13:07:39;98426.69;;;1.30;59.81
15674;BME280;7937;48.090;16.212;2023-01-29T13:10:48;98423.06;;;1.07;60.83
15674;BME280;7937;48.090;16.212;2023-01-29T13:17:39;98418.00;;;1.29;60.74
15674;BME280;7937;48.090;16.212;2023-01-29T13:20:45;98406.00;;;1.35;59.91
15674;BME280;7937;48.090;16.212;2023-01-29T13:24:01;98416.50;;;1.27;60.12
15674;BME280;7937;48.090;16.212;2023-01-29T13:27:04;98415.84;;;1.17;60.04
15674;BME280;7937;48.090;16.212;2023-01-29T13:30:24;98418.81;;;1.30;60.13
15674;BME280;7937;48.090;16.212;2023-01-29T13:33:27;98411.72;;;1.47;60.34
15674;BME280;7937;48.090;16.212;2023-01-29T13:36:30;98416.34;;;1.53;59.78
15674;BME280;7937;48.090;16.212;2023-01-29T13:39:38;98412.88;;;1.61;59.48
15674;BME280;7937;48.090;16.212;2023-01-29T13:42:47;98412.41;;;1.49;59.58
15674;BME280;7937;48.090;16.212;2023-01-29T13:45:51;98408.94;;;1.65;59.21
15674;BME280;7937;48.090;16.212;2023-01-29T13:48:54;98399.91;;;1.51;59.47
15674;BME280;7937;48.090;16.212;2023-01-29T13:52:15;98401.38;;;1.62;58.93
15674;BME280;7937;48.090;16.212;2023-01-29T13:55:22;98396.28;;;1.68;59.13
15674;BME280;7937;48.090;16.212;2023-01-29T14:04:49;98402.72;;;1.17;59.77
15674;BME280;7937;48.090;16.212;2023-01-29T14:07:53;98394.38;;;1.05;60.22
15674;BME280;7937;48.090;16.212;2023-01-29T14:24:20;98396.16;;;0.80;60.07
15674;BME280;7937;48.090;16.212;2023-01-29T14:27:26;98403.84;;;0.65;60.51
15674;BME280;7937;48.090;16.212;2023-01-29T14:30:31;98396.25;;;0.54;61.33
15674;BME280;7937;48.090;16.212;2023-01-29T14:33:39;98412.66;;;0.56;61.02
15674;BME280;7937;48.090;16.212;2023-01-29T14:36:46;98402.78;;;0.42;61.47
15674;BME280;7937;48.090;16.212;2023-01-29T14:40:04;98403.09;;;0.39;61.60
15674;BME280;7937;48.090;16.212;2023-01-29T14:43:18;98394.63;;;0.45;61.29
15674;BME280;7937;48.090;16.212;2023-01-29T14:46:45;98407.38;;;0.40;61.11
15674;BME280;7937;48.090;16.212;2023-01-29T14:49:59;98406.88;;;0.36;61.59
15674;BME280;7937;48.090;16.212;2023-01-29T14:56:32;98376.97;;;0.13;61.92
15674;BME280;7937;48.090;16.212;2023-01-29T14:59:55;98398.31;;;0.34;61.55
15674;BME280;7937;48.090;16.212;2023-01-29T15:03:04;98415.97;;;0.24;61.88
15674;BME280;7937;48.090;16.212;2023-01-29T15:06:26;98407.13;;;0.17;61.68
15674;BME280;7937;48.090;16.212;2023-01-29T15:12:45;98401.38;;;-0.21;63.80
15674;BME280;7937;48.090;16.212;2023-01-29T15:16:24;98402.28;;;-0.30;63.65
15674;BME280;7937;48.090;16.212;2023-01-29T15:19:34;98408.47;;;-0.39;63.30
15674;BME280;7937;48.090;16.212;2023-01-29T15:22:42;98414.63;;;-0.48;64.45
15674;BME280;7937;48.090;16.212;2023-01-29T15:25:50;98422.94;;;-0.53;64.15
15674;BME280;7937;48.090;16.212;2023-01-29T15:28:56;98432.34;;;-0.60;64.82
15674;BME280;7937;48.090;16.212;2023-01-29T15:32:06;98424.16;;;-0.65;65.03
15674;BME280;7937;48.090;16.212;2023-01-29T15:38:22;98430.06;;;-0.63;64.71
15674;BME280;7937;48.090;16.212;2023-01-29T15:41:28;98421.84;;;-0.68;64.65
15674;BME280;7937;48.090;16.212;2023-01-29T15:44:32;98423.50;;;-0.67;65.16
15674;BME280;7937;48.090;16.212;2023-01-29T15:47:42;98430.88;;;-0.63;65.06
15674;BME280;7937;48.090;16.212;2023-01-29T15:50:45;98434.06;;;-0.51;64.79
15674;BME280;7937;48.090;16.212;2023-01-29T15:53:57;98433.25;;;-0.52;65.02
15674;BME280;7937;48.090;16.212;2023-01-29T15:57:01;98425.09;;;-0.48;64.71
15674;BME280;7937;48.090;16.212;2023-01-29T16:00:16;98434.69;;;-0.57;64.36
15674;BME280;7937;48.090;16.212;2023-01-29T16:03:22;98442.75;;;-0.50;64.08
15674;BME280;7937;48.090;16.212;2023-01-29T16:06:27;98398.25;;;-0.76;64.16
15674;BME280;7937;48.090;16.212;2023-01-29T16:09:33;98441.91;;;-0.51;64.26
15674;BME280;7937;48.090;16.212;2023-01-29T16:12:42;98445.69;;;-0.54;65.08
15674;BME280;7937;48.090;16.212;2023-01-29T16:16:19;98429.88;;;-0.88;65.28
15674;BME280;7937;48.090;16.212;2023-01-29T16:19:26;98453.69;;;-0.73;65.30
15674;BME280;7937;48.090;16.212;2023-01-29T16:22:36;98452.72;;;-0.72;66.02
15674;BME280;7937;48.090;16.212;2023-01-29T16:25:39;98450.94;;;-0.71;65.25
15674;BME280;7937;48.090;16.212;2023-01-29T16:28:46;98452.03;;;-0.74;65.59
15674;BME280;7937;48.090;16.212;2023-01-29T16:31:52;98450.25;;;-0.73;65.54
15674;BME280;7937;48.090;16.212;2023-01-29T16:35:03;98450.41;;;-0.75;64.74
15674;BME280;7937;48.090;16.212;2023-01-29T16:38:27;98445.16;;;-0.75;65.43
15674;BME280;7937;48.090;16.212;2023-01-29T16:41:33;98453.47;;;-0.80;65.29
15674;BME280;7937;48.090;16.212;2023-01-29T16:44:50;98461.03;;;-0.76;65.72
15674;BME280;7937;48.090;16.212;2023-01-29T16:48:19;98452.88;;;-0.73;65.66
15674;BME280;7937;48.090;16.212;2023-01-29T16:51:29;98452.34;;;-0.77;66.48
15674;BME280;7937;48.090;16.212;2023-01-29T16:54:41;98460.56;;;-0.90;66.35
15674;BME280;7937;48.090;16.212;2023-01-29T16:57:50;98459.59;;;-0.89;66.36
15674;BME280;7937;48.090;16.212;2023-01-29T17:01:01;98460.44;;;-0.88;66.38
15674;BME280;7937;48.090;16.212;2023-01-29T17:04:17;98462.59;;;-0.84;66.46
15674;BME280;7937;48.090;16.212;2023-01-29T17:07:21;98461.09;;;-0.86;66.73
15674;BME280;7937;48.090;16.212;2023-01-29T17:10:27;98461.53;;;-0.91;66.34
15674;BME280;7937;48.090;16.212;2023-01-29T17:13:39;98464.75;;;-0.97;66.39
15674;BME280;7937;48.090;16.212;2023-01-29T17:16:54;98447.94;;;-0.94;65.86
15674;BME280;7937;48.090;16.212;2023-01-29T17:20:11;98451.53;;;-0.95;66.65
15674;BME280;7937;48.090;16.212;2023-01-29T17:23:15;98449.72;;;-0.95;66.17
15674;BME280;7937;48.090;16.212;2023-01-29T17:26:19;98433.53;;;-0.98;66.76
15674;BME280;7937;48.090;16.212;2023-01-29T17:29:29;98441.16;;;-1.05;66.98
15674;BME280;7937;48.090;16.212;2023-01-29T17:32:33;98441.31;;;-1.07;66.84
15674;BME280;7937;48.090;16.212;2023-01-29T17:35:48;98419.09;;;-1.20;66.55
15674;BME280;7937;48.090;16.212;2023-01-29T17:38:51;98423.06;;;-1.16;67.07
15674;BME280;7937;48.090;16.212;2023-01-29T17:41:57;98425.09;;;-1.10;66.79
15674;BME280;7937;48.090;16.212;2023-01-29T17:45:02;98422.03;;;-1.06;66.62
15674;BME280;7937;48.090;16.212;2023-01-29T17:48:28;98421.38;;;-1.08;66.09
15674;BME280;7937;48.090;16.212;2023-01-29T17:51:34;98419.56;;;-1.07;66.22
15674;BME280;7937;48.090;16.212;2023-01-29T17:54:37;98390.34;;;-1.20;65.80
15674;BME280;7937;48.090;16.212;2023-01-29T17:57:41;98412.69;;;-1.08;65.39
15674;BME280;7937;48.090;16.212;2023-01-29T18:00:46;98417.31;;;-1.20;65.74
15674;BME280;7937;48.090;16.212;2023-01-29T18:03:50;98395.75;;;-1.22;66.82
15674;BME280;7937;48.090;16.212;2023-01-29T18:06:54;98388.41;;;-1.18;66.90
15674;BME280;7937;48.090;16.212;2023-01-29T18:09:59;98383.78;;;-1.24;66.93
15674;BME280;7937;48.090;16.212;2023-01-29T18:13:02;98381.59;;;-1.29;66.93
15674;BME280;7937;48.090;16.212;2023-01-29T18:16:06;98371.25;;;-1.21;66.60
15674;BME280;7937;48.090;16.212;2023-01-29T18:19:21;98379.97;;;-1.12;66.29
15674;BME280;7937;48.090;16.212;2023-01-29T18:22:24;98373.63;;;-1.10;66.61
15674;BME280;7937;48.090;16.212;2023-01-29T18:25:30;98362.53;;;-1.04;65.72